sensor_id;sensor_type;location;lat;lon;timestamp;P1;durP1;ratioP1;P2;durP2;ratioP2
1691;SDS011;843;52.054;8.552;2023-08-01T00:01:45;1.63;;;1.53;;
1691;SDS011;843;52.054;8.552;2023-08-01T00:04:12;3.87;;;2.20;;
1691;SDS011;843;52.054;8.552;2023-08-01T00:06:38;2.60;;;1.90;;
1691;SDS011;843;52.054;8.552;2023-08-01T00:09:05;1.87;;;1.77;;
1691;SDS011;843;52.054;8.552;2023-08-01T00:11:31;1.80;;;1.70;;
1691;SDS011;843;52.054;8.552;2023-08-01T00:13:57;2.50;;;2.20;;
1691;SDS011;843;52.054;8.552;2023-08-01T00:16:24;2.10;;;1.90;;
1691;SDS011;843;52.054;8.552;2023-08-01T00:18:52;1.60;;;1.50;;
1691;SDS011;843;52.054;8.552;2023-08-01T00:21:18;2.53;;;1.43;;
1691;SDS011;843;52.054;8.552;2023-08-01T00:23:44;3.33;;;1.80;;
1691;SDS011;843;52.054;8.552;2023-08-01T00:26:11;3.93;;;1.60;;
1691;SDS011;843;52.054;8.552;2023-08-01T00:28:37;1.87;;;1.77;;
1691;SDS011;843;52.054;8.552;2023-08-01T00:31:04;1.97;;;1.73;;
1691;SDS011;843;52.054;8.552;2023-08-01T00:33:30;1.50;;;1.40;;
1691;SDS011;843;52.054;8.552;2023-08-01T00:35:59;2.30;;;1.50;;
1691;SDS011;843;52.054;8.552;2023-08-01T00:38:25;3.57;;;1.93;;
1691;SDS011;843;52.054;8.552;2023-08-01T00:40:52;1.70;;;1.60;;
1691;SDS011;843;52.054;8.552;2023-08-01T00:43:18;3.27;;;1.73;;
1691;SDS011;843;52.054;8.552;2023-08-01T00:45:45;1.70;;;1.60;;
1691;SDS011;843;52.054;8.552;2023-08-01T00:48:12;1.57;;;1.43;;
1691;SDS011;843;52.054;8.552;2023-08-01T00:50:38;2.57;;;1.60;;
1691;SDS011;843;52.054;8.552;2023-08-01T00:53:06;2.23;;;1.30;;
1691;SDS011;843;52.054;8.552;2023-08-01T00:55:33;2.43;;;1.57;;
1691;SDS011;843;52.054;8.552;2023-08-01T00:58:00;2.20;;;1.20;;
1691;SDS011;843;52.054;8.552;2023-08-01T01:00:26;1.80;;;1.47;;
1691;SDS011;843;52.054;8.552;2023-08-01T01:02:53;2.73;;;1.30;;
1691;SDS011;843;52.054;8.552;2023-08-01T01:05:19;1.93;;;1.50;;
1691;SDS011;843;52.054;8.552;2023-08-01T01:07:46;1.83;;;1.07;;
1691;SDS011;843;52.054;8.552;2023-08-01T01:10:14;2.27;;;1.30;;
1691;SDS011;843;52.054;8.552;2023-08-01T01:12:40;1.43;;;1.33;;
1691;SDS011;843;52.054;8.552;2023-08-01T01:15:07;1.60;;;1.43;;
1691;SDS011;843;52.054;8.552;2023-08-01T01:17:34;1.60;;;1.50;;
1691;SDS011;843;52.054;8.552;2023-08-01T01:20:00;3.53;;;1.50;;
1691;SDS011;843;52.054;8.552;2023-08-01T01:22:28;1.70;;;1.20;;
1691;SDS011;843;52.054;8.552;2023-08-01T01:24:55;2.13;;;1.50;;
1691;SDS011;843;52.054;8.552;2023-08-01T01:27:22;1.67;;;1.40;;
1691;SDS011;843;52.054;8.552;2023-08-01T01:29:49;1.90;;;1.30;;
1691;SDS011;843;52.054;8.552;2023-08-01T01:32:15;2.23;;;1.60;;
1691;SDS011;843;52.054;8.552;2023-08-01T01:34:43;1.77;;;1.13;;
1691;SDS011;843;52.054;8.552;2023-08-01T01:37:10;1.37;;;1.13;;
1691;SDS011;843;52.054;8.552;2023-08-01T01:39:38;1.60;;;1.40;;
1691;SDS011;843;52.054;8.552;2023-08-01T01:42:04;1.27;;;1.17;;
1691;SDS011;843;52.054;8.552;2023-08-01T01:44:31;3.03;;;1.40;;
1691;SDS011;843;52.054;8.552;2023-08-01T01:46:57;1.80;;;1.50;;
1691;SDS011;843;52.054;8.552;2023-08-01T01:49:23;4.53;;;1.60;;
1691;SDS011;843;52.054;8.552;2023-08-01T01:51:51;3.03;;;1.70;;
1691;SDS011;843;52.054;8.552;2023-08-01T01:54:17;1.53;;;1.30;;
1691;SDS011;843;52.054;8.552;2023-08-01T01:56:45;1.23;;;1.13;;
1691;SDS011;843;52.054;8.552;2023-08-01T01:59:11;2.43;;;1.40;;
1691;SDS011;843;52.054;8.552;2023-08-01T02:01:38;1.60;;;1.20;;
1691;SDS011;843;52.054;8.552;2023-08-01T02:04:04;1.50;;;1.40;;
1691;SDS011;843;52.054;8.552;2023-08-01T02:06:30;4.57;;;1.20;;
1691;SDS011;843;52.054;8.552;2023-08-01T02:08:57;1.40;;;1.20;;
1691;SDS011;843;52.054;8.552;2023-08-01T02:11:23;2.23;;;1.47;;
1691;SDS011;843;52.054;8.552;2023-08-01T02:13:52;1.13;;;1.03;;
1691;SDS011;843;52.054;8.552;2023-08-01T02:16:19;1.20;;;1.00;;
1691;SDS011;843;52.054;8.552;2023-08-01T02:18:45;2.23;;;1.40;;
1691;SDS011;843;52.054;8.552;2023-08-01T02:21:11;1.10;;;1.00;;
1691;SDS011;843;52.054;8.552;2023-08-01T02:23:38;1.20;;;0.93;;
1691;SDS011;843;52.054;8.552;2023-08-01T02:26:04;1.57;;;1.30;;
1691;SDS011;843;52.054;8.552;2023-08-01T02:28:33;1.50;;;1.40;;
1691;SDS011;843;52.054;8.552;2023-08-01T02:31:01;1.47;;;1.27;;
1691;SDS011;843;52.054;8.552;2023-08-01T02:33:27;1.17;;;1.07;;
1691;SDS011;843;52.054;8.552;2023-08-01T02:35:53;1.37;;;1.20;;
1691;SDS011;843;52.054;8.552;2023-08-01T02:38:20;1.63;;;1.30;;
1691;SDS011;843;52.054;8.552;2023-08-01T02:40:46;1.47;;;1.37;;
1691;SDS011;843;52.054;8.552;2023-08-01T02:43:12;1.73;;;1.63;;
1691;SDS011;843;52.054;8.552;2023-08-01T02:45:39;1.60;;;1.50;;
1691;SDS011;843;52.054;8.552;2023-08-01T02:48:08;1.50;;;1.40;;
1691;SDS011;843;52.054;8.552;2023-08-01T02:50:35;1.73;;;1.40;;
1691;SDS011;843;52.054;8.552;2023-08-01T02:53:01;1.87;;;1.67;;
1691;SDS011;843;52.054;8.552;2023-08-01T02:55:28;1.70;;;1.47;;
1691;SDS011;843;52.054;8.552;2023-08-01T02:57:54;3.67;;;1.40;;
1691;SDS011;843;52.054;8.552;2023-08-01T03:00:21;1.73;;;1.47;;
1691;SDS011;843;52.054;8.552;2023-08-01T03:02:47;1.80;;;1.20;;
1691;SDS011;843;52.054;8.552;2023-08-01T03:05:15;2.77;;;1.40;;
1691;SDS011;843;52.054;8.552;2023-08-01T03:07:42;2.20;;;1.77;;
1691;SDS011;843;52.054;8.552;2023-08-01T03:10:08;1.60;;;1.47;;
1691;SDS011;843;52.054;8.552;2023-08-01T03:12:36;2.07;;;1.60;;
1691;SDS011;843;52.054;8.552;2023-08-01T03:15:02;5.63;;;1.63;;
1691;SDS011;843;52.054;8.552;2023-08-01T03:17:29;2.33;;;1.40;;
1691;SDS011;843;52.054;8.552;2023-08-01T03:19:55;1.93;;;1.23;;
1691;SDS011;843;52.054;8.552;2023-08-01T03:22:23;1.50;;;1.33;;
1691;SDS011;843;52.054;8.552;2023-08-01T03:24:49;2.57;;;1.77;;
1691;SDS011;843;52.054;8.552;2023-08-01T03:27:16;2.23;;;1.70;;
1691;SDS011;843;52.054;8.552;2023-08-01T03:29:42;1.70;;;1.60;;
1691;SDS011;843;52.054;8.552;2023-08-01T03:32:09;3.17;;;1.80;;
1691;SDS011;843;52.054;8.552;2023-08-01T03:34:35;1.93;;;1.73;;
1691;SDS011;843;52.054;8.552;2023-08-01T03:37:04;2.93;;;2.10;;
1691;SDS011;843;52.054;8.552;2023-08-01T03:39:32;2.47;;;2.03;;
1691;SDS011;843;52.054;8.552;2023-08-01T03:41:58;2.60;;;2.40;;
1691;SDS011;843;52.054;8.552;2023-08-01T03:44:24;2.47;;;2.27;;
1691;SDS011;843;52.054;8.552;2023-08-01T03:46:51;3.83;;;3.13;;
1691;SDS011;843;52.054;8.552;2023-08-01T03:49:17;3.03;;;2.83;;
1691;SDS011;843;52.054;8.552;2023-08-01T03:51:44;3.83;;;2.63;;
1691;SDS011;843;52.054;8.552;2023-08-01T03:54:10;2.70;;;2.50;;
1691;SDS011;843;52.054;8.552;2023-08-01T03:56:38;3.83;;;3.10;;
1691;SDS011;843;52.054;8.552;2023-08-01T03:59:08;3.30;;;3.00;;
1691;SDS011;843;52.054;8.552;2023-08-01T04:01:34;3.53;;;3.23;;
1691;SDS011;843;52.054;8.552;2023-08-01T04:04:00;4.07;;;3.63;;
1691;SDS011;843;52.054;8.552;2023-08-01T04:06:27;3.83;;;3.53;;
1691;SDS011;843;52.054;8.552;2023-08-01T04:08:53;7.43;;;5.20;;
1691;SDS011;843;52.054;8.552;2023-08-01T04:11:21;6.53;;;5.30;;
1691;SDS011;843;52.054;8.552;2023-08-01T04:13:49;8.10;;;6.20;;
1691;SDS011;843;52.054;8.552;2023-08-01T04:16:16;7.63;;;6.93;;
1691;SDS011;843;52.054;8.552;2023-08-01T04:18:42;6.40;;;5.80;;
1691;SDS011;843;52.054;8.552;2023-08-01T04:21:09;9.13;;;6.53;;
1691;SDS011;843;52.054;8.552;2023-08-01T04:23:35;7.90;;;7.10;;
1691;SDS011;843;52.054;8.552;2023-08-01T04:26:01;7.80;;;7.10;;
1691;SDS011;843;52.054;8.552;2023-08-01T04:28:31;7.60;;;5.47;;
1691;SDS011;843;52.054;8.552;2023-08-01T04:30:58;8.07;;;5.87;;
1691;SDS011;843;52.054;8.552;2023-08-01T04:33:25;5.00;;;4.60;;
1691;SDS011;843;52.054;8.552;2023-08-01T04:35:51;4.53;;;4.13;;
1691;SDS011;843;52.054;8.552;2023-08-01T04:38:18;4.20;;;3.90;;
1691;SDS011;843;52.054;8.552;2023-08-01T04:40:44;5.00;;;4.50;;
1691;SDS011;843;52.054;8.552;2023-08-01T04:43:12;5.20;;;4.50;;
1691;SDS011;843;52.054;8.552;2023-08-01T04:45:38;4.30;;;4.00;;
1691;SDS011;843;52.054;8.552;2023-08-01T04:48:06;4.60;;;4.20;;
1691;SDS011;843;52.054;8.552;2023-08-01T04:50:32;4.73;;;4.33;;
1691;SDS011;843;52.054;8.552;2023-08-01T04:52:59;6.03;;;5.27;;
1691;SDS011;843;52.054;8.552;2023-08-01T04:55:25;6.10;;;5.50;;
1691;SDS011;843;52.054;8.552;2023-08-01T04:57:51;6.17;;;5.40;;
1691;SDS011;843;52.054;8.552;2023-08-01T05:00:18;6.27;;;5.50;;
1691;SDS011;843;52.054;8.552;2023-08-01T05:02:44;5.60;;;4.90;;
1691;SDS011;843;52.054;8.552;2023-08-01T05:05:12;8.23;;;5.73;;
1691;SDS011;843;52.054;8.552;2023-08-01T05:07:38;8.27;;;6.13;;
1691;SDS011;843;52.054;8.552;2023-08-01T05:10:05;10.03;;;6.60;;
1691;SDS011;843;52.054;8.552;2023-08-01T05:12:31;8.27;;;6.33;;
1691;SDS011;843;52.054;8.552;2023-08-01T05:14:58;9.27;;;5.77;;
1691;SDS011;843;52.054;8.552;2023-08-01T05:17:24;9.50;;;6.30;;
1691;SDS011;843;52.054;8.552;2023-08-01T05:19:50;10.47;;;6.37;;
1691;SDS011;843;52.054;8.552;2023-08-01T05:22:18;10.20;;;5.87;;
1691;SDS011;843;52.054;8.552;2023-08-01T05:24:45;7.73;;;6.53;;
1691;SDS011;843;52.054;8.552;2023-08-01T05:27:11;8.00;;;5.50;;
1691;SDS011;843;52.054;8.552;2023-08-01T05:29:37;9.73;;;6.77;;
1691;SDS011;843;52.054;8.552;2023-08-01T05:32:04;8.60;;;6.03;;
1691;SDS011;843;52.054;8.552;2023-08-01T05:34:30;10.30;;;6.73;;
1691;SDS011;843;52.054;8.552;2023-08-01T05:36:57;11.73;;;6.13;;
1691;SDS011;843;52.054;8.552;2023-08-01T05:39:24;9.00;;;6.10;;
1691;SDS011;843;52.054;8.552;2023-08-01T05:41:51;13.30;;;6.77;;
1691;SDS011;843;52.054;8.552;2023-08-01T05:44:17;7.53;;;5.50;;
1691;SDS011;843;52.054;8.552;2023-08-01T05:46:44;12.17;;;6.10;;
1691;SDS011;843;52.054;8.552;2023-08-01T05:49:10;8.80;;;6.20;;
1691;SDS011;843;52.054;8.552;2023-08-01T05:51:36;9.37;;;6.40;;
1691;SDS011;843;52.054;8.552;2023-08-01T05:54:03;11.30;;;6.10;;
1691;SDS011;843;52.054;8.552;2023-08-01T05:56:31;8.60;;;6.80;;
1691;SDS011;843;52.054;8.552;2023-08-01T05:58:57;12.63;;;7.00;;
1691;SDS011;843;52.054;8.552;2023-08-01T06:01:24;11.03;;;6.00;;
1691;SDS011;843;52.054;8.552;2023-08-01T06:03:50;8.43;;;6.20;;
1691;SDS011;843;52.054;8.552;2023-08-01T06:06:16;9.73;;;6.30;;
1691;SDS011;843;52.054;8.552;2023-08-01T06:08:43;8.27;;;6.70;;
1691;SDS011;843;52.054;8.552;2023-08-01T06:11:09;14.10;;;7.40;;
1691;SDS011;843;52.054;8.552;2023-08-01T06:13:37;9.10;;;6.73;;
1691;SDS011;843;52.054;8.552;2023-08-01T06:16:03;8.03;;;5.90;;
1691;SDS011;843;52.054;8.552;2023-08-01T06:18:30;10.63;;;6.93;;
1691;SDS011;843;52.054;8.552;2023-08-01T06:20:57;11.53;;;7.50;;
1691;SDS011;843;52.054;8.552;2023-08-01T06:23:23;9.90;;;7.30;;
1691;SDS011;843;52.054;8.552;2023-08-01T06:25:50;10.50;;;7.80;;
1691;SDS011;843;52.054;8.552;2023-08-01T06:28:16;12.07;;;8.23;;
1691;SDS011;843;52.054;8.552;2023-08-01T06:30:44;14.67;;;8.30;;
1691;SDS011;843;52.054;8.552;2023-08-01T06:33:11;9.63;;;8.43;;
1691;SDS011;843;52.054;8.552;2023-08-01T06:35:37;15.87;;;7.97;;
1691;SDS011;843;52.054;8.552;2023-08-01T06:38:04;12.13;;;7.57;;
1691;SDS011;843;52.054;8.552;2023-08-01T06:40:30;14.20;;;7.80;;
1691;SDS011;843;52.054;8.552;2023-08-01T06:42:56;13.20;;;7.67;;
1691;SDS011;843;52.054;8.552;2023-08-01T06:45:23;16.30;;;8.20;;
1691;SDS011;843;52.054;8.552;2023-08-01T06:47:51;17.27;;;8.50;;
1691;SDS011;843;52.054;8.552;2023-08-01T06:50:17;10.33;;;8.20;;
1691;SDS011;843;52.054;8.552;2023-08-01T06:52:43;9.90;;;8.07;;
1691;SDS011;843;52.054;8.552;2023-08-01T06:55:10;12.07;;;8.33;;
1691;SDS011;843;52.054;8.552;2023-08-01T06:57:36;9.57;;;7.10;;
1691;SDS011;843;52.054;8.552;2023-08-01T07:00:03;11.90;;;7.50;;
1691;SDS011;843;52.054;8.552;2023-08-01T07:02:29;9.70;;;6.90;;
1691;SDS011;843;52.054;8.552;2023-08-01T07:04:58;13.13;;;7.17;;
1691;SDS011;843;52.054;8.552;2023-08-01T07:07:24;12.17;;;7.90;;
1691;SDS011;843;52.054;8.552;2023-08-01T07:09:50;9.03;;;6.90;;
1691;SDS011;843;52.054;8.552;2023-08-01T07:12:17;15.03;;;7.73;;
1691;SDS011;843;52.054;8.552;2023-08-01T07:14:43;16.50;;;8.50;;
1691;SDS011;843;52.054;8.552;2023-08-01T07:17:09;12.70;;;7.03;;
1691;SDS011;843;52.054;8.552;2023-08-01T07:19:36;9.63;;;6.90;;
1691;SDS011;843;52.054;8.552;2023-08-01T07:22:04;7.90;;;6.40;;
1691;SDS011;843;52.054;8.552;2023-08-01T07:24:30;7.37;;;5.53;;
1691;SDS011;843;52.054;8.552;2023-08-01T07:26:56;7.60;;;5.83;;
1691;SDS011;843;52.054;8.552;2023-08-01T07:29:23;6.60;;;4.10;;
1691;SDS011;843;52.054;8.552;2023-08-01T07:31:49;6.53;;;4.17;;
1691;SDS011;843;52.054;8.552;2023-08-01T07:34:16;6.77;;;4.40;;
1691;SDS011;843;52.054;8.552;2023-08-01T07:36:42;8.87;;;4.23;;
1691;SDS011;843;52.054;8.552;2023-08-01T07:39:10;5.23;;;4.07;;
1691;SDS011;843;52.054;8.552;2023-08-01T07:41:36;8.50;;;5.47;;
1691;SDS011;843;52.054;8.552;2023-08-01T07:44:03;6.10;;;4.90;;
1691;SDS011;843;52.054;8.552;2023-08-01T07:46:29;5.80;;;4.53;;
1691;SDS011;843;52.054;8.552;2023-08-01T07:48:55;8.10;;;4.77;;
1691;SDS011;843;52.054;8.552;2023-08-01T07:51:22;7.07;;;5.23;;
1691;SDS011;843;52.054;8.552;2023-08-01T07:53:49;8.17;;;5.40;;
1691;SDS011;843;52.054;8.552;2023-08-01T07:56:18;8.77;;;5.60;;
1691;SDS011;843;52.054;8.552;2023-08-01T07:58:44;6.27;;;4.37;;
1691;SDS011;843;52.054;8.552;2023-08-01T08:01:11;7.37;;;4.13;;
1691;SDS011;843;52.054;8.552;2023-08-01T08:03:37;5.20;;;4.20;;
1691;SDS011;843;52.054;8.552;2023-08-01T08:06:03;8.43;;;4.00;;
1691;SDS011;843;52.054;8.552;2023-08-01T08:08:30;5.00;;;3.83;;
1691;SDS011;843;52.054;8.552;2023-08-01T08:10:58;6.60;;;4.57;;
1691;SDS011;843;52.054;8.552;2023-08-01T08:13:27;8.07;;;4.20;;
1691;SDS011;843;52.054;8.552;2023-08-01T08:15:54;8.63;;;4.10;;
1691;SDS011;843;52.054;8.552;2023-08-01T08:18:21;6.90;;;4.37;;
1691;SDS011;843;52.054;8.552;2023-08-01T08:20:48;7.10;;;4.87;;
1691;SDS011;843;52.054;8.552;2023-08-01T08:23:14;6.50;;;4.47;;
1691;SDS011;843;52.054;8.552;2023-08-01T08:25:41;5.20;;;4.10;;
1691;SDS011;843;52.054;8.552;2023-08-01T08:28:09;6.43;;;4.27;;
1691;SDS011;843;52.054;8.552;2023-08-01T08:30:37;8.63;;;4.47;;
1691;SDS011;843;52.054;8.552;2023-08-01T08:33:04;9.07;;;4.33;;
1691;SDS011;843;52.054;8.552;2023-08-01T08:35:32;5.20;;;3.47;;
1691;SDS011;843;52.054;8.552;2023-08-01T08:37:58;6.43;;;3.77;;
1691;SDS011;843;52.054;8.552;2023-08-01T08:40:25;7.07;;;3.17;;
1691;SDS011;843;52.054;8.552;2023-08-01T08:42:52;3.93;;;3.33;;
1691;SDS011;843;52.054;8.552;2023-08-01T08:45:19;4.80;;;2.90;;
1691;SDS011;843;52.054;8.552;2023-08-01T08:47:47;5.70;;;3.10;;
1691;SDS011;843;52.054;8.552;2023-08-01T08:50:15;4.20;;;2.67;;
1691;SDS011;843;52.054;8.552;2023-08-01T08:52:41;5.00;;;3.00;;
1691;SDS011;843;52.054;8.552;2023-08-01T08:55:08;9.10;;;3.37;;
1691;SDS011;843;52.054;8.552;2023-08-01T08:57:34;5.67;;;2.97;;
1691;SDS011;843;52.054;8.552;2023-08-01T09:00:01;6.23;;;2.60;;
1691;SDS011;843;52.054;8.552;2023-08-01T09:02:29;4.50;;;2.80;;
1691;SDS011;843;52.054;8.552;2023-08-01T09:04:58;7.10;;;3.17;;
1691;SDS011;843;52.054;8.552;2023-08-01T09:07:24;8.70;;;3.03;;
1691;SDS011;843;52.054;8.552;2023-08-01T09:09:53;5.13;;;2.90;;
1691;SDS011;843;52.054;8.552;2023-08-01T09:12:20;5.23;;;2.60;;
1691;SDS011;843;52.054;8.552;2023-08-01T09:14:47;6.83;;;3.20;;
1691;SDS011;843;52.054;8.552;2023-08-01T09:17:14;4.07;;;2.90;;
1691;SDS011;843;52.054;8.552;2023-08-01T09:19:43;4.80;;;2.70;;
1691;SDS011;843;52.054;8.552;2023-08-01T09:22:11;3.73;;;2.30;;
1691;SDS011;843;52.054;8.552;2023-08-01T09:24:38;5.33;;;2.13;;
1691;SDS011;843;52.054;8.552;2023-08-01T09:27:05;2.77;;;2.17;;
1691;SDS011;843;52.054;8.552;2023-08-01T09:29:31;2.73;;;1.47;;
1691;SDS011;843;52.054;8.552;2023-08-01T09:31:58;4.47;;;2.03;;
1691;SDS011;843;52.054;8.552;2023-08-01T09:34:25;4.80;;;2.63;;
1691;SDS011;843;52.054;8.552;2023-08-01T09:36:57;4.13;;;3.00;;
1691;SDS011;843;52.054;8.552;2023-08-01T09:39:25;6.00;;;3.77;;
1691;SDS011;843;52.054;8.552;2023-08-01T09:41:54;5.10;;;3.60;;
1691;SDS011;843;52.054;8.552;2023-08-01T09:44:21;5.90;;;4.00;;
1691;SDS011;843;52.054;8.552;2023-08-01T09:46:54;5.83;;;3.83;;
1691;SDS011;843;52.054;8.552;2023-08-01T09:49:21;8.53;;;4.93;;
1691;SDS011;843;52.054;8.552;2023-08-01T09:51:47;5.97;;;5.37;;
1691;SDS011;843;52.054;8.552;2023-08-01T09:54:15;8.20;;;5.00;;
1691;SDS011;843;52.054;8.552;2023-08-01T09:56:43;7.10;;;5.20;;
1691;SDS011;843;52.054;8.552;2023-08-01T09:59:10;9.03;;;6.43;;
1691;SDS011;843;52.054;8.552;2023-08-01T10:01:37;11.67;;;6.40;;
1691;SDS011;843;52.054;8.552;2023-08-01T10:04:04;7.63;;;6.20;;
1691;SDS011;843;52.054;8.552;2023-08-01T10:06:31;7.20;;;6.30;;
1691;SDS011;843;52.054;8.552;2023-08-01T10:08:59;9.70;;;6.33;;
1691;SDS011;843;52.054;8.552;2023-08-01T10:11:25;7.13;;;6.40;;
1691;SDS011;843;52.054;8.552;2023-08-01T10:13:54;8.90;;;7.00;;
1691;SDS011;843;52.054;8.552;2023-08-01T10:16:20;11.43;;;6.87;;
1691;SDS011;843;52.054;8.552;2023-08-01T10:18:47;12.90;;;5.90;;
1691;SDS011;843;52.054;8.552;2023-08-01T10:21:15;8.13;;;6.73;;
1691;SDS011;843;52.054;8.552;2023-08-01T10:23:42;8.90;;;6.27;;
1691;SDS011;843;52.054;8.552;2023-08-01T10:26:10;12.17;;;7.10;;
1691;SDS011;843;52.054;8.552;2023-08-01T10:28:37;12.37;;;9.00;;
1691;SDS011;843;52.054;8.552;2023-08-01T10:31:12;8.30;;;7.43;;
1691;SDS011;843;52.054;8.552;2023-08-01T10:33:39;12.60;;;7.07;;
1691;SDS011;843;52.054;8.552;2023-08-01T10:36:12;10.00;;;6.80;;
1691;SDS011;843;52.054;8.552;2023-08-01T10:38:44;8.43;;;5.47;;
1691;SDS011;843;52.054;8.552;2023-08-01T10:41:17;12.43;;;6.50;;
1691;SDS011;843;52.054;8.552;2023-08-01T10:43:44;10.63;;;6.20;;
1691;SDS011;843;52.054;8.552;2023-08-01T10:46:12;7.17;;;6.47;;
1691;SDS011;843;52.054;8.552;2023-08-01T10:48:47;8.97;;;6.20;;
1691;SDS011;843;52.054;8.552;2023-08-01T10:51:13;8.97;;;7.10;;
1691;SDS011;843;52.054;8.552;2023-08-01T10:53:40;9.87;;;7.20;;
1691;SDS011;843;52.054;8.552;2023-08-01T10:56:06;7.73;;;6.10;;
1691;SDS011;843;52.054;8.552;2023-08-01T10:58:33;8.07;;;6.50;;
1691;SDS011;843;52.054;8.552;2023-08-01T11:01:00;8.10;;;5.70;;
1691;SDS011;843;52.054;8.552;2023-08-01T11:03:35;7.77;;;5.83;;
1691;SDS011;843;52.054;8.552;2023-08-01T11:06:01;9.23;;;6.40;;
1691;SDS011;843;52.054;8.552;2023-08-01T11:08:34;10.97;;;5.40;;
1691;SDS011;843;52.054;8.552;2023-08-01T11:11:00;8.60;;;5.33;;
1691;SDS011;843;52.054;8.552;2023-08-01T11:13:26;9.33;;;5.73;;
1691;SDS011;843;52.054;8.552;2023-08-01T11:15:53;7.27;;;4.87;;
1691;SDS011;843;52.054;8.552;2023-08-01T11:18:21;7.07;;;4.53;;
1691;SDS011;843;52.054;8.552;2023-08-01T11:20:49;8.27;;;4.83;;
1691;SDS011;843;52.054;8.552;2023-08-01T11:23:15;8.83;;;5.30;;
1691;SDS011;843;52.054;8.552;2023-08-01T11:25:42;8.10;;;4.67;;
1691;SDS011;843;52.054;8.552;2023-08-01T11:28:11;11.37;;;4.50;;
1691;SDS011;843;52.054;8.552;2023-08-01T11:30:38;5.60;;;4.30;;
1691;SDS011;843;52.054;8.552;2023-08-01T11:33:12;4.83;;;3.80;;
1691;SDS011;843;52.054;8.552;2023-08-01T11:35:39;5.63;;;3.80;;
1691;SDS011;843;52.054;8.552;2023-08-01T11:38:07;7.57;;;4.57;;
1691;SDS011;843;52.054;8.552;2023-08-01T11:40:33;8.10;;;4.17;;
1691;SDS011;843;52.054;8.552;2023-08-01T11:43:00;10.60;;;4.80;;
1691;SDS011;843;52.054;8.552;2023-08-01T11:45:27;5.60;;;3.77;;
1691;SDS011;843;52.054;8.552;2023-08-01T11:47:53;8.03;;;4.10;;
1691;SDS011;843;52.054;8.552;2023-08-01T11:50:23;5.50;;;4.00;;
1691;SDS011;843;52.054;8.552;2023-08-01T11:52:50;4.97;;;4.00;;
1691;SDS011;843;52.054;8.552;2023-08-01T11:55:22;7.47;;;3.30;;
1691;SDS011;843;52.054;8.552;2023-08-01T11:57:55;4.10;;;3.43;;
1691;SDS011;843;52.054;8.552;2023-08-01T12:00:22;6.33;;;3.73;;
1691;SDS011;843;52.054;8.552;2023-08-01T12:02:48;4.27;;;3.40;;
1691;SDS011;843;52.054;8.552;2023-08-01T12:05:20;7.13;;;3.70;;
1691;SDS011;843;52.054;8.552;2023-08-01T12:07:47;5.63;;;3.77;;
1691;SDS011;843;52.054;8.552;2023-08-01T12:10:13;6.27;;;4.07;;
1691;SDS011;843;52.054;8.552;2023-08-01T12:12:44;6.47;;;3.77;;
1691;SDS011;843;52.054;8.552;2023-08-01T12:15:11;5.43;;;3.37;;
1691;SDS011;843;52.054;8.552;2023-08-01T12:17:37;3.53;;;2.83;;
1691;SDS011;843;52.054;8.552;2023-08-01T12:20:04;4.40;;;2.97;;
1691;SDS011;843;52.054;8.552;2023-08-01T12:22:31;5.50;;;3.07;;
1691;SDS011;843;52.054;8.552;2023-08-01T12:24:57;4.60;;;3.67;;
1691;SDS011;843;52.054;8.552;2023-08-01T12:27:24;5.10;;;2.97;;
1691;SDS011;843;52.054;8.552;2023-08-01T12:29:51;4.10;;;2.97;;
1691;SDS011;843;52.054;8.552;2023-08-01T12:32:18;7.43;;;3.10;;
1691;SDS011;843;52.054;8.552;2023-08-01T12:34:44;4.57;;;2.90;;
1691;SDS011;843;52.054;8.552;2023-08-01T12:37:10;5.40;;;3.20;;
1691;SDS011;843;52.054;8.552;2023-08-01T12:39:37;4.37;;;3.00;;
1691;SDS011;843;52.054;8.552;2023-08-01T12:42:03;4.90;;;3.00;;
1691;SDS011;843;52.054;8.552;2023-08-01T12:44:30;7.60;;;2.90;;
1691;SDS011;843;52.054;8.552;2023-08-01T12:46:58;5.40;;;3.40;;
1691;SDS011;843;52.054;8.552;2023-08-01T12:49:24;6.40;;;3.03;;
1691;SDS011;843;52.054;8.552;2023-08-01T12:51:51;4.73;;;3.37;;
1691;SDS011;843;52.054;8.552;2023-08-01T12:54:17;5.43;;;3.50;;
1691;SDS011;843;52.054;8.552;2023-08-01T12:56:43;7.83;;;3.63;;
1691;SDS011;843;52.054;8.552;2023-08-01T12:59:10;7.30;;;3.13;;
1691;SDS011;843;52.054;8.552;2023-08-01T13:01:37;4.97;;;3.00;;
1691;SDS011;843;52.054;8.552;2023-08-01T13:04:05;5.30;;;3.30;;
1691;SDS011;843;52.054;8.552;2023-08-01T13:06:31;6.00;;;2.93;;
1691;SDS011;843;52.054;8.552;2023-08-01T13:08:57;5.20;;;3.10;;
1691;SDS011;843;52.054;8.552;2023-08-01T13:11:24;6.67;;;4.00;;
1691;SDS011;843;52.054;8.552;2023-08-01T13:13:50;3.77;;;2.67;;
1691;SDS011;843;52.054;8.552;2023-08-01T13:16:17;4.93;;;2.80;;
1691;SDS011;843;52.054;8.552;2023-08-01T13:18:43;4.40;;;2.70;;
1691;SDS011;843;52.054;8.552;2023-08-01T13:21:13;2.93;;;2.40;;
1691;SDS011;843;52.054;8.552;2023-08-01T13:23:40;6.10;;;2.43;;
1691;SDS011;843;52.054;8.552;2023-08-01T13:26:06;2.97;;;2.30;;
1691;SDS011;843;52.054;8.552;2023-08-01T13:28:32;3.23;;;2.47;;
1691;SDS011;843;52.054;8.552;2023-08-01T13:30:59;6.67;;;2.60;;
1691;SDS011;843;52.054;8.552;2023-08-01T13:33:25;4.57;;;2.60;;
1691;SDS011;843;52.054;8.552;2023-08-01T13:35:52;3.30;;;2.03;;
1691;SDS011;843;52.054;8.552;2023-08-01T13:38:20;4.77;;;2.20;;
1691;SDS011;843;52.054;8.552;2023-08-01T13:40:46;5.80;;;2.40;;
1691;SDS011;843;52.054;8.552;2023-08-01T13:43:13;5.57;;;2.43;;
1691;SDS011;843;52.054;8.552;2023-08-01T13:45:40;4.77;;;2.90;;
1691;SDS011;843;52.054;8.552;2023-08-01T13:48:06;5.60;;;2.23;;
1691;SDS011;843;52.054;8.552;2023-08-01T13:50:32;4.80;;;2.60;;
1691;SDS011;843;52.054;8.552;2023-08-01T13:52:59;4.53;;;2.10;;
1691;SDS011;843;52.054;8.552;2023-08-01T13:55:27;6.63;;;2.67;;
1691;SDS011;843;52.054;8.552;2023-08-01T13:57:53;3.70;;;2.00;;
1691;SDS011;843;52.054;8.552;2023-08-01T14:00:20;3.70;;;2.03;;
1691;SDS011;843;52.054;8.552;2023-08-01T14:02:48;4.20;;;2.93;;
1691;SDS011;843;52.054;8.552;2023-08-01T14:05:15;4.30;;;2.37;;
1691;SDS011;843;52.054;8.552;2023-08-01T14:07:41;4.40;;;2.40;;
1691;SDS011;843;52.054;8.552;2023-08-01T14:10:08;3.50;;;1.70;;
1691;SDS011;843;52.054;8.552;2023-08-01T14:12:36;2.53;;;2.00;;
1691;SDS011;843;52.054;8.552;2023-08-01T14:15:02;6.77;;;3.03;;
1691;SDS011;843;52.054;8.552;2023-08-01T14:17:29;4.17;;;2.40;;
1691;SDS011;843;52.054;8.552;2023-08-01T14:19:55;3.50;;;2.43;;
1691;SDS011;843;52.054;8.552;2023-08-01T14:22:22;6.03;;;2.10;;
1691;SDS011;843;52.054;8.552;2023-08-01T14:24:49;4.60;;;2.20;;
1691;SDS011;843;52.054;8.552;2023-08-01T14:27:15;6.00;;;2.30;;
1691;SDS011;843;52.054;8.552;2023-08-01T14:29:43;3.70;;;2.30;;
1691;SDS011;843;52.054;8.552;2023-08-01T14:32:09;4.40;;;2.90;;
1691;SDS011;843;52.054;8.552;2023-08-01T14:34:36;4.07;;;2.00;;
1691;SDS011;843;52.054;8.552;2023-08-01T14:37:03;7.97;;;2.63;;
1691;SDS011;843;52.054;8.552;2023-08-01T14:39:29;4.37;;;2.77;;
1691;SDS011;843;52.054;8.552;2023-08-01T14:41:56;8.23;;;2.83;;
1691;SDS011;843;52.054;8.552;2023-08-01T14:44:22;5.07;;;2.70;;
1691;SDS011;843;52.054;8.552;2023-08-01T14:46:50;2.70;;;2.20;;
1691;SDS011;843;52.054;8.552;2023-08-01T14:49:19;5.07;;;2.70;;
1691;SDS011;843;52.054;8.552;2023-08-01T14:51:46;7.50;;;2.30;;
1691;SDS011;843;52.054;8.552;2023-08-01T14:54:12;6.03;;;2.20;;
1691;SDS011;843;52.054;8.552;2023-08-01T14:56:39;2.57;;;2.07;;
1691;SDS011;843;52.054;8.552;2023-08-01T14:59:05;5.13;;;2.17;;
1691;SDS011;843;52.054;8.552;2023-08-01T15:01:32;2.67;;;2.20;;
1691;SDS011;843;52.054;8.552;2023-08-01T15:03:59;3.70;;;2.33;;
1691;SDS011;843;52.054;8.552;2023-08-01T15:06:26;3.83;;;2.37;;
1691;SDS011;843;52.054;8.552;2023-08-01T15:08:52;5.80;;;2.90;;
1691;SDS011;843;52.054;8.552;2023-08-01T15:11:19;5.00;;;2.40;;
1691;SDS011;843;52.054;8.552;2023-08-01T15:13:45;3.07;;;2.10;;
1691;SDS011;843;52.054;8.552;2023-08-01T15:16:11;3.77;;;2.30;;
1691;SDS011;843;52.054;8.552;2023-08-01T15:18:38;4.97;;;2.07;;
1691;SDS011;843;52.054;8.552;2023-08-01T15:21:06;4.60;;;2.00;;
1691;SDS011;843;52.054;8.552;2023-08-01T15:23:32;3.07;;;2.07;;
1691;SDS011;843;52.054;8.552;2023-08-01T15:25:59;3.03;;;1.87;;